Flight Track Log - Related Links

Times and Time Zones

All times are in EDT time to prevent confusion due to time zone crossing. See the THY2229 flight status page for this flight to view local times or setup timezone preferences in your user account.

Time Position Orientation Groundspeed Altitude Reporting Facility
EDT Latitude Longitude Course Direction KTS MPH feet Rate Location/Type
Sat 04:58:00 PM 37.2239 36.9531 304° West  Level Estimated
Sat 04:59:00 PM 37.2789 36.8475 303° West  Level Estimated
Sat 05:00:00 PM 37.3339 36.7418 303° West  Level Estimated
Sat 05:01:00 PM 37.3887 36.6359 303° West  Level Estimated
Sat 05:02:00 PM 37.4435 36.5299 303° West  Level Estimated
Sat 05:03:00 PM 37.4982 36.4237 303° West  Level Estimated
Sat 05:04:00 PM 37.5527 36.3174 303° West  Level Estimated
Sat 05:05:00 PM 37.6072 36.2109 303° West  Level Estimated
Sat 05:06:00 PM 37.6616 36.1042 303° West  Level Estimated
Sat 05:07:00 PM 37.7159 35.9974 303° West  Level Estimated
Sat 05:08:00 PM 37.7701 35.8904 303° West  Level Estimated
Sat 05:09:00 PM 37.8242 35.7833 303° West  Level Estimated
Sat 05:10:00 PM 37.8782 35.6760 303° West  Level Estimated
Sat 05:11:00 PM 37.9321 35.5686 302° West  Level Estimated
Sat 05:12:00 PM 37.9859 35.4609 302° West  Level Estimated
Sat 05:13:00 PM 38.0396 35.3532 302° West  Level Estimated
Sat 05:14:00 PM 38.0932 35.2453 302° West  Level Estimated
Sat 05:15:00 PM 38.1468 35.1372 302° West  Level Estimated
Sat 05:16:00 PM 38.2002 35.0290 302° West  Level Estimated
Sat 05:17:00 PM 38.2535 34.9206 302° West  Level Estimated
Sat 05:18:00 PM 38.3067 34.8120 302° West  Level Estimated
Sat 05:19:00 PM 38.3598 34.7033 302° West  Level Estimated
Sat 05:20:00 PM 38.4128 34.5945 302° West  Level Estimated
Sat 05:21:00 PM 38.4657 34.4854 302° West  Level Estimated
Sat 05:22:00 PM 38.5185 34.3762 302° West  Level Estimated
Sat 05:23:00 PM 38.5712 34.2669 302° West  Level Estimated
Sat 05:24:00 PM 38.6238 34.1574 302° West  Level Estimated
Sat 05:25:00 PM 38.6763 34.0477 302° West  Level Estimated
Sat 05:26:00 PM 38.7287 33.9379 301° West  Level Estimated
Sat 05:27:00 PM 38.7810 33.8279 301° West  Level Estimated
Sat 05:28:00 PM 38.8332 33.7177 301° West  Level Estimated
Sat 05:29:00 PM 38.8853 33.6074 301° West  Level Estimated
Sat 05:30:00 PM 38.9373 33.4969 301° West  Level Estimated
Sat 05:31:00 PM 38.9892 33.3863 301° West  Level Estimated
Sat 05:32:00 PM 39.0410 33.2755 301° West  Level Estimated
Sat 05:33:00 PM 39.0927 33.1645 301° West  Level Estimated
Sat 05:34:00 PM 39.1442 33.0534 301° West  Level Estimated
Sat 05:35:00 PM 39.1957 32.9421 301° West  Level Estimated
Sat 05:36:00 PM 39.2470 32.8307 301° West  Level Estimated
Sat 05:37:00 PM 39.2983 32.7190 301° West  Level Estimated
Sat 05:38:00 PM 39.3494 32.6073 301° West  Level Estimated
Sat 05:39:00 PM 39.4005 32.4953 301° West  Level Estimated
Sat 05:40:00 PM 39.4514 32.3832 300° West  Level Estimated
Sat 05:41:00 PM 39.5022 32.2709 300° West  Level Estimated
Sat 05:42:00 PM 39.5529 32.1585 300° West  Level Estimated
Sat 05:43:00 PM 39.6035 32.0459 300° West  Level Estimated
Sat 05:44:00 PM 39.6540 31.9331 300° West  Level Estimated
Sat 05:45:00 PM 39.7044 31.8202 300° West  Level Estimated
Sat 05:46:00 PM 39.7547 31.7071 300° West  Level Estimated
Sat 05:47:00 PM 39.8049 31.5939 300° West  Level Estimated
Sat 05:48:00 PM 39.8549 31.4804 300° West  Level Estimated
Sat 05:49:00 PM 39.9049 31.3669 300° West  Level Estimated
Sat 05:50:00 PM 39.9547 31.2531 300° West  Level Estimated
Sat 05:51:00 PM 40.0045 31.1392 300° West  Level Estimated
Sat 05:52:00 PM 40.0541 31.0251 300° West  Level Estimated
Sat 05:53:00 PM 40.1036 30.9109 300° West  Level Estimated
Sat 05:54:00 PM 40.1530 30.7964 299° West  Level Estimated
Sat 05:55:00 PM 40.2022 30.6819 299° West  Level Estimated
Sat 05:56:00 PM 40.2514 30.5671 299° West  Level Estimated
Sat 05:57:00 PM 40.3004 30.4522 299° West  Level Estimated
Sat 05:58:00 PM 40.3494 30.3371 299° West  Level Estimated
Sat 05:59:00 PM 40.3982 30.2218 299° West  Level Estimated
Sat 06:00:00 PM 40.4469 30.1064 299° West  Level Estimated
Sat 06:01:00 PM 40.4955 29.9908 299° West  Level Estimated
Sat 06:02:00 PM 40.5440 29.8751 299° West  Level Estimated
Sat 06:03:00 PM 40.5923 29.7592 299° West  Level Estimated
Sat 06:04:00 PM 40.6406 29.6431 299° West  Level Estimated
Sat 06:05:00 PM 40.6887 29.5268 299° West  Level Estimated
Sat 06:06:00 PM 40.7367 29.4104 299° West  Level Estimated
Sat 06:07:00 PM 40.7846 29.2938 299° West  Level Estimated
Sat 06:08:00 PM 40.8324 29.1771 298° West  Level Estimated
Sat 06:09:00 PM 40.8801 29.0601 298° West  Level Estimated
Sat 06:10:00 PM 40.9276 28.9430 298° West  Level Estimated
Sat 06:11:00 PM 40.9750 28.8258 298° West  Level Estimated
Sat 06:12:00 PM 40.9769 28.8211 298° West  Level Estimated
Sat 06:13:00 PM 40.9769 28.8211 21° North  Level Estimated
Sat 06:14:00 PM 40.9769 28.8211 21° North  Level Estimated
Sat 06:15:00 PM 40.9769 28.8211 21° North  Level Estimated
Sat 06:16:00 PM 40.9769 28.8211 21° North  Level Estimated
Sat 06:17:00 PM 40.9769 28.8211 21° North  Level Estimated
Sat 06:18:00 PM 40.9769 28.8211 21° North  Level Estimated
Sat 06:19:00 PM 40.9769 28.8211 21° North  Level Estimated
Sat 06:20:00 PM 40.9769 28.8211 21° North  Level Estimated
Sat 06:21:00 PM 40.9769 28.8211 21° North  Level Estimated
Sat 06:22:00 PM 40.9769 28.8211 21° North  Level Estimated
Sat 06:23:00 PM 40.9769 28.8211 21° North  Level Estimated
Sat 06:24:00 PM 40.9769 28.8211 21° North  Level Estimated
Sat 06:25:00 PM 40.9769 28.8211 21° North  Level Estimated
Sat 06:26:00 PM 40.9769 28.8211 21° North  Level Estimated
Sat 06:27:00 PM 40.9769 28.8211 21° North  Level Estimated

Login

Don't have an account? Register now (free) for customized features, flight alerts, and more!